sensor_id;sensor_type;location;lat;lon;timestamp;pressure;altitude;pressure_sealevel;temperature;humidity
38716;BME280;24833;49.324;8.694;2022-08-19T00:02:03;99352.56;;;22.08;53.88
38716;BME280;24833;49.324;8.694;2022-08-19T00:04:34;99340.88;;;22.08;53.79
38716;BME280;24833;49.324;8.694;2022-08-19T00:07:05;99333.78;;;22.07;53.75
38716;BME280;24833;49.324;8.694;2022-08-19T00:09:33;99343.03;;;22.06;54.09
38716;BME280;24833;49.324;8.694;2022-08-19T00:12:01;99341.44;;;22.04;54.35
38716;BME280;24833;49.324;8.694;2022-08-19T00:14:29;99339.53;;;22.05;54.77
38716;BME280;24833;49.324;8.694;2022-08-19T00:17:04;99336.00;;;22.04;55.52
38716;BME280;24833;49.324;8.694;2022-08-19T00:19:32;99339.81;;;22.03;54.80
38716;BME280;24833;49.324;8.694;2022-08-19T00:21:59;99342.81;;;22.02;55.15
38716;BME280;24833;49.324;8.694;2022-08-19T00:24:26;99341.19;;;22.01;55.08
38716;BME280;24833;49.324;8.694;2022-08-19T00:26:54;99337.66;;;22.00;55.30
38716;BME280;24833;49.324;8.694;2022-08-19T00:29:24;99343.38;;;21.99;55.21
38716;BME280;24833;49.324;8.694;2022-08-19T00:31:52;99337.13;;;21.98;55.12
38716;BME280;24833;49.324;8.694;2022-08-19T00:34:23;99331.16;;;21.96;54.67
38716;BME280;24833;49.324;8.694;2022-08-19T00:36:50;99320.56;;;21.95;54.69
38716;BME280;24833;49.324;8.694;2022-08-19T00:39:18;99322.47;;;21.94;55.05
38716;BME280;24833;49.324;8.694;2022-08-19T00:41:46;99323.53;;;21.93;54.79
38716;BME280;24833;49.324;8.694;2022-08-19T00:44:24;99321.09;;;21.92;54.64
38716;BME280;24833;49.324;8.694;2022-08-19T00:46:56;99331.19;;;21.91;54.65
38716;BME280;24833;49.324;8.694;2022-08-19T00:49:33;99324.13;;;21.90;55.19
38716;BME280;24833;49.324;8.694;2022-08-19T00:52:15;99329.56;;;21.90;54.82
38716;BME280;24833;49.324;8.694;2022-08-19T00:54:45;99338.81;;;21.89;54.98
38716;BME280;24833;49.324;8.694;2022-08-19T00:57:29;99338.28;;;21.87;54.81
38716;BME280;24833;49.324;8.694;2022-08-19T00:59:58;99330.38;;;21.86;55.11
38716;BME280;24833;49.324;8.694;2022-08-19T01:02:31;99324.13;;;21.85;54.89
38716;BME280;24833;49.324;8.694;2022-08-19T01:05:04;99317.09;;;21.84;55.09
38716;BME280;24833;49.324;8.694;2022-08-19T01:07:33;99306.50;;;21.83;54.86
38716;BME280;24833;49.324;8.694;2022-08-19T01:10:07;99304.06;;;21.81;55.23
38716;BME280;24833;49.324;8.694;2022-08-19T01:12:35;99313.31;;;21.80;55.28
38716;BME280;24833;49.324;8.694;2022-08-19T01:15:07;99319.81;;;21.79;55.31
38716;BME280;24833;49.324;8.694;2022-08-19T01:17:37;99319.28;;;21.77;55.63
38716;BME280;24833;49.324;8.694;2022-08-19T01:20:07;99322.31;;;21.75;55.51
38716;BME280;24833;49.324;8.694;2022-08-19T01:22:49;99329.09;;;21.73;55.31
38716;BME280;24833;49.324;8.694;2022-08-19T01:25:22;99328.28;;;21.72;55.38
38716;BME280;24833;49.324;8.694;2022-08-19T01:27:52;99322.31;;;21.70;55.92
38716;BME280;24833;49.324;8.694;2022-08-19T01:30:28;99325.31;;;21.69;55.96
38716;BME280;24833;49.324;8.694;2022-08-19T01:32:57;99326.44;;;21.68;55.62
38716;BME280;24833;49.324;8.694;2022-08-19T01:35:29;99328.34;;;21.67;55.98
38716;BME280;24833;49.324;8.694;2022-08-19T01:38:02;99323.97;;;21.66;55.47
38716;BME280;24833;49.324;8.694;2022-08-19T01:40:34;99316.91;;;21.65;55.60
38716;BME280;24833;49.324;8.694;2022-08-19T01:43:03;99315.28;;;21.64;55.45
38716;BME280;24833;49.324;8.694;2022-08-19T01:45:32;99315.56;;;21.63;55.31
38716;BME280;24833;49.324;8.694;2022-08-19T01:48:00;99326.44;;;21.63;55.38
38716;BME280;24833;49.324;8.694;2022-08-19T01:50:31;99337.59;;;21.61;55.35
38716;BME280;24833;49.324;8.694;2022-08-19T01:52:59;99335.13;;;21.60;56.00
38716;BME280;24833;49.324;8.694;2022-08-19T01:55:37;99338.94;;;21.59;55.34
38716;BME280;24833;49.324;8.694;2022-08-19T01:58:13;99346.56;;;21.57;55.56
38716;BME280;24833;49.324;8.694;2022-08-19T02:00:41;99335.72;;;21.57;56.42
38716;BME280;24833;49.324;8.694;2022-08-19T02:03:08;99338.72;;;21.55;56.47
38716;BME280;24833;49.324;8.694;2022-08-19T02:05:39;99338.72;;;21.55;56.06
38716;BME280;24833;49.324;8.694;2022-08-19T02:08:07;99341.72;;;21.54;56.04
38716;BME280;24833;49.324;8.694;2022-08-19T02:10:43;99340.34;;;21.51;56.83
38716;BME280;24833;49.324;8.694;2022-08-19T02:13:12;99342.25;;;21.51;56.73
38716;BME280;24833;49.324;8.694;2022-08-19T02:15:40;99341.44;;;21.50;56.57
38716;BME280;24833;49.324;8.694;2022-08-19T02:18:08;99337.91;;;21.49;57.34
38716;BME280;24833;49.324;8.694;2022-08-19T02:20:36;99330.84;;;21.48;57.59
38716;BME280;24833;49.324;8.694;2022-08-19T02:23:05;99327.31;;;21.48;57.55
38716;BME280;24833;49.324;8.694;2022-08-19T02:25:45;99331.94;;;21.47;57.21
38716;BME280;24833;49.324;8.694;2022-08-19T02:28:13;99340.34;;;21.46;57.68
38716;BME280;24833;49.324;8.694;2022-08-19T02:30:45;99342.25;;;21.45;58.37
38716;BME280;24833;49.324;8.694;2022-08-19T02:33:13;99335.22;;;21.44;57.94
38716;BME280;24833;49.324;8.694;2022-08-19T02:35:44;99336.31;;;21.43;57.74
38716;BME280;24833;49.324;8.694;2022-08-19T02:38:12;99331.97;;;21.42;57.84
38716;BME280;24833;49.324;8.694;2022-08-19T02:40:59;99326.00;;;21.40;57.85
38716;BME280;24833;49.324;8.694;2022-08-19T02:43:28;99322.72;;;21.38;58.46
38716;BME280;24833;49.324;8.694;2022-08-19T02:46:00;99325.44;;;21.38;58.20
38716;BME280;24833;49.324;8.694;2022-08-19T02:48:27;99322.22;;;21.36;58.06
38716;BME280;24833;49.324;8.694;2022-08-19T02:50:54;99324.41;;;21.34;58.47
38716;BME280;24833;49.324;8.694;2022-08-19T02:53:26;99321.69;;;21.34;58.08
38716;BME280;24833;49.324;8.694;2022-08-19T02:55:53;99323.84;;;21.32;58.52
38716;BME280;24833;49.324;8.694;2022-08-19T02:58:21;99322.22;;;21.31;58.53
38716;BME280;24833;49.324;8.694;2022-08-19T03:00:52;99320.59;;;21.30;57.88
38716;BME280;24833;49.324;8.694;2022-08-19T03:03:20;99317.34;;;21.28;59.00
38716;BME280;24833;49.324;8.694;2022-08-19T03:05:47;99312.97;;;21.27;58.84
38716;BME280;24833;49.324;8.694;2022-08-19T03:08:23;99312.44;;;21.25;58.85
38716;BME280;24833;49.324;8.694;2022-08-19T03:10:51;99311.09;;;21.22;59.12
38716;BME280;24833;49.324;8.694;2022-08-19T03:13:19;99307.56;;;21.22;60.08
38716;BME280;24833;49.324;8.694;2022-08-19T03:15:48;99304.31;;;21.20;59.53
38716;BME280;24833;49.324;8.694;2022-08-19T03:18:15;99314.34;;;21.19;59.13
38716;BME280;24833;49.324;8.694;2022-08-19T03:20:49;99314.09;;;21.16;59.00
38716;BME280;24833;49.324;8.694;2022-08-19T03:23:17;99321.72;;;21.14;59.22
38716;BME280;24833;49.324;8.694;2022-08-19T03:25:47;99322.78;;;21.13;59.02
38716;BME280;24833;49.324;8.694;2022-08-19T03:28:34;99330.69;;;21.09;58.96
38716;BME280;24833;49.324;8.694;2022-08-19T03:31:09;99332.06;;;21.07;58.89
38716;BME280;24833;49.324;8.694;2022-08-19T03:33:57;99330.41;;;21.06;59.09
38716;BME280;24833;49.324;8.694;2022-08-19T03:36:26;99333.41;;;21.04;58.83
38716;BME280;24833;49.324;8.694;2022-08-19T03:38:58;99327.44;;;21.02;58.68
38716;BME280;24833;49.324;8.694;2022-08-19T03:41:32;99336.13;;;20.99;59.17
38716;BME280;24833;49.324;8.694;2022-08-19T03:44:13;99332.06;;;20.97;58.98
38716;BME280;24833;49.324;8.694;2022-08-19T03:46:46;99335.34;;;20.93;59.09
38716;BME280;24833;49.324;8.694;2022-08-19T03:49:15;99340.22;;;20.91;58.99
38716;BME280;24833;49.324;8.694;2022-08-19T03:51:46;99340.78;;;20.88;59.21
38716;BME280;24833;49.324;8.694;2022-08-19T03:54:19;99351.09;;;20.86;59.45
38716;BME280;24833;49.324;8.694;2022-08-19T03:56:49;99340.78;;;20.83;59.27
38716;BME280;24833;49.324;8.694;2022-08-19T03:59:27;99340.25;;;20.81;59.34
38716;BME280;24833;49.324;8.694;2022-08-19T04:01:58;99336.97;;;20.79;60.44
38716;BME280;24833;49.324;8.694;2022-08-19T04:04:26;99342.97;;;20.76;59.52
38716;BME280;24833;49.324;8.694;2022-08-19T04:06:56;99350.00;;;20.72;60.17
38716;BME280;24833;49.324;8.694;2022-08-19T04:09:24;99345.66;;;20.71;60.84
38716;BME280;24833;49.324;8.694;2022-08-19T04:11:54;99342.41;;;20.69;60.85
38716;BME280;24833;49.324;8.694;2022-08-19T04:14:26;99339.19;;;20.67;59.95
38716;BME280;24833;49.324;8.694;2022-08-19T04:16:55;99337.53;;;20.66;59.67
38716;BME280;24833;49.324;8.694;2022-08-19T04:19:22;99332.66;;;20.63;60.19
38716;BME280;24833;49.324;8.694;2022-08-19T04:21:52;99341.88;;;20.62;60.46
38716;BME280;24833;49.324;8.694;2022-08-19T04:24:20;99348.66;;;20.59;60.61
38716;BME280;24833;49.324;8.694;2022-08-19T04:26:49;99350.84;;;20.57;60.13
38716;BME280;24833;49.324;8.694;2022-08-19T04:29:23;99359.25;;;20.56;59.79
38716;BME280;24833;49.324;8.694;2022-08-19T04:31:54;99343.50;;;20.53;60.51
38716;BME280;24833;49.324;8.694;2022-08-19T04:34:26;99344.59;;;20.52;60.86
38716;BME280;24833;49.324;8.694;2022-08-19T04:36:56;99335.91;;;20.50;60.52
38716;BME280;24833;49.324;8.694;2022-08-19T04:39:28;99334.56;;;20.47;61.23
38716;BME280;24833;49.324;8.694;2022-08-19T04:42:17;99333.19;;;20.45;60.11
38716;BME280;24833;49.324;8.694;2022-08-19T04:45:05;99339.69;;;20.44;60.80
38716;BME280;24833;49.324;8.694;2022-08-19T04:47:41;99336.44;;;20.41;60.16
38716;BME280;24833;49.324;8.694;2022-08-19T04:50:25;99338.56;;;20.39;60.05
38716;BME280;24833;49.324;8.694;2022-08-19T04:52:52;99344.00;;;20.39;60.59
38716;BME280;24833;49.324;8.694;2022-08-19T04:55:20;99342.38;;;20.38;60.88
38716;BME280;24833;49.324;8.694;2022-08-19T04:57:47;99339.94;;;20.37;61.04
38716;BME280;24833;49.324;8.694;2022-08-19T05:00:14;99339.94;;;20.37;60.87
38716;BME280;24833;49.324;8.694;2022-08-19T05:02:42;99337.50;;;20.35;60.40
38716;BME280;24833;49.324;8.694;2022-08-19T05:05:09;99346.75;;;20.34;60.57
38716;BME280;24833;49.324;8.694;2022-08-19T05:07:37;99347.56;;;20.35;60.09
38716;BME280;24833;49.324;8.694;2022-08-19T05:10:05;99355.69;;;20.35;60.24
38716;BME280;24833;49.324;8.694;2022-08-19T05:12:33;99357.59;;;20.34;60.74
38716;BME280;24833;49.324;8.694;2022-08-19T05:15:03;99370.06;;;20.35;60.69
38716;BME280;24833;49.324;8.694;2022-08-19T05:17:30;99360.84;;;20.36;60.19
38716;BME280;24833;49.324;8.694;2022-08-19T05:20:06;99360.84;;;20.36;60.13
38716;BME280;24833;49.324;8.694;2022-08-19T05:22:51;99352.69;;;20.36;60.82
38716;BME280;24833;49.324;8.694;2022-08-19T05:25:21;99363.53;;;20.36;60.39
38716;BME280;24833;49.324;8.694;2022-08-19T05:27:48;99369.50;;;20.38;60.60
38716;BME280;24833;49.324;8.694;2022-08-19T05:30:16;99380.34;;;20.38;60.46
38716;BME280;24833;49.324;8.694;2022-08-19T05:32:44;99388.25;;;20.40;60.77
38716;BME280;24833;49.324;8.694;2022-08-19T05:35:11;99384.44;;;20.41;60.29
38716;BME280;24833;49.324;8.694;2022-08-19T05:37:39;99384.16;;;20.42;60.62
38716;BME280;24833;49.324;8.694;2022-08-19T05:40:10;99389.06;;;20.46;61.08
38716;BME280;24833;49.324;8.694;2022-08-19T05:42:37;99399.41;;;20.49;61.08
38716;BME280;24833;49.324;8.694;2022-08-19T05:45:05;99397.22;;;20.51;60.31
38716;BME280;24833;49.324;8.694;2022-08-19T05:47:32;99401.84;;;20.55;60.71
38716;BME280;24833;49.324;8.694;2022-08-19T05:49:59;99406.72;;;20.58;61.78
38716;BME280;24833;49.324;8.694;2022-08-19T05:52:31;99405.13;;;20.62;61.13
38716;BME280;24833;49.324;8.694;2022-08-19T05:54:59;99408.34;;;20.64;61.20
38716;BME280;24833;49.324;8.694;2022-08-19T05:57:27;99422.22;;;20.68;61.70
38716;BME280;24833;49.324;8.694;2022-08-19T05:59:56;99427.09;;;20.71;61.68
38716;BME280;24833;49.324;8.694;2022-08-19T06:02:30;99432.81;;;20.75;62.20
38716;BME280;24833;49.324;8.694;2022-08-19T06:04:58;99429.25;;;20.79;61.58
38716;BME280;24833;49.324;8.694;2022-08-19T06:07:25;99434.69;;;20.84;62.80
38716;BME280;24833;49.324;8.694;2022-08-19T06:09:53;99444.47;;;20.90;63.63
38716;BME280;24833;49.324;8.694;2022-08-19T06:12:30;99445.56;;;20.94;63.08
38716;BME280;24833;49.324;8.694;2022-08-19T06:15:08;99448.25;;;21.00;63.17
38716;BME280;24833;49.324;8.694;2022-08-19T06:17:35;99448.28;;;21.05;62.67
38716;BME280;24833;49.324;8.694;2022-08-19T06:20:08;99453.16;;;21.08;62.80
38716;BME280;24833;49.324;8.694;2022-08-19T06:22:41;99448.81;;;21.12;62.66
38716;BME280;24833;49.324;8.694;2022-08-19T06:25:09;99458.03;;;21.16;62.48
38716;BME280;24833;49.324;8.694;2022-08-19T06:27:37;99465.09;;;21.17;62.99
38716;BME280;24833;49.324;8.694;2022-08-19T06:30:24;99467.28;;;21.20;62.18
38716;BME280;24833;49.324;8.694;2022-08-19T06:32:51;99458.03;;;21.21;63.12
38716;BME280;24833;49.324;8.694;2022-08-19T06:35:19;99461.84;;;21.25;63.03
38716;BME280;24833;49.324;8.694;2022-08-19T06:37:46;99461.88;;;21.30;63.52
38716;BME280;24833;49.324;8.694;2022-08-19T06:40:13;99461.88;;;21.35;63.33
38716;BME280;24833;49.324;8.694;2022-08-19T06:42:41;99467.28;;;21.40;63.74
38716;BME280;24833;49.324;8.694;2022-08-19T06:45:21;99464.53;;;21.45;63.57
38716;BME280;24833;49.324;8.694;2022-08-19T06:48:00;99467.25;;;21.51;63.36
38716;BME280;24833;49.324;8.694;2022-08-19T06:50:27;99466.16;;;21.57;63.48
38716;BME280;24833;49.324;8.694;2022-08-19T06:52:54;99459.91;;;21.61;63.37
38716;BME280;24833;49.324;8.694;2022-08-19T06:55:21;99466.16;;;21.67;63.42
38716;BME280;24833;49.324;8.694;2022-08-19T06:57:50;99468.84;;;21.72;63.08
38716;BME280;24833;49.324;8.694;2022-08-19T07:00:20;99461.75;;;21.76;62.94
38716;BME280;24833;49.324;8.694;2022-08-19T07:02:47;99453.03;;;21.79;62.66
38716;BME280;24833;49.324;8.694;2022-08-19T07:05:24;99464.19;;;21.83;62.63
38716;BME280;24833;49.324;8.694;2022-08-19T07:07:51;99466.63;;;21.84;62.98
38716;BME280;24833;49.324;8.694;2022-08-19T07:10:19;99455.22;;;21.87;62.66
38716;BME280;24833;49.324;8.694;2022-08-19T07:12:46;99453.56;;;21.86;62.75
38716;BME280;24833;49.324;8.694;2022-08-19T07:15:16;99454.13;;;21.88;62.99
38716;BME280;24833;49.324;8.694;2022-08-19T07:17:44;99452.50;;;21.87;62.69
38716;BME280;24833;49.324;8.694;2022-08-19T07:20:15;99450.81;;;21.91;62.51
38716;BME280;24833;49.324;8.694;2022-08-19T07:22:44;99444.03;;;21.94;62.85
38716;BME280;24833;49.324;8.694;2022-08-19T07:25:12;99452.72;;;21.96;62.71
38716;BME280;24833;49.324;8.694;2022-08-19T07:27:39;99452.44;;;21.97;62.63
38716;BME280;24833;49.324;8.694;2022-08-19T07:30:08;99454.63;;;22.00;63.29
38716;BME280;24833;49.324;8.694;2022-08-19T07:32:40;99455.44;;;22.01;62.86
38716;BME280;24833;49.324;8.694;2022-08-19T07:35:09;99456.47;;;22.05;62.64
38716;BME280;24833;49.324;8.694;2022-08-19T07:37:37;99449.69;;;22.08;62.29
38716;BME280;24833;49.324;8.694;2022-08-19T07:40:07;99457.00;;;22.12;62.29
38716;BME280;24833;49.324;8.694;2022-08-19T07:42:34;99462.44;;;22.17;62.60
38716;BME280;24833;49.324;8.694;2022-08-19T07:45:01;99464.06;;;22.18;62.28
38716;BME280;24833;49.324;8.694;2022-08-19T07:47:28;99464.34;;;22.22;62.62
38716;BME280;24833;49.324;8.694;2022-08-19T07:50:17;99457.22;;;22.26;62.79
38716;BME280;24833;49.324;8.694;2022-08-19T07:52:48;99461.00;;;22.30;62.25
38716;BME280;24833;49.324;8.694;2022-08-19T07:55:23;99458.00;;;22.32;62.38
38716;BME280;24833;49.324;8.694;2022-08-19T07:58:10;99472.41;;;22.37;62.21
38716;BME280;24833;49.324;8.694;2022-08-19T08:00:38;99465.31;;;22.41;62.47
38716;BME280;24833;49.324;8.694;2022-08-19T08:03:05;99471.53;;;22.47;62.21
38716;BME280;24833;49.324;8.694;2022-08-19T08:05:32;99462.53;;;22.51;62.30
38716;BME280;24833;49.324;8.694;2022-08-19T08:08:18;99467.94;;;22.56;62.19
38716;BME280;24833;49.324;8.694;2022-08-19T08:11:11;99466.28;;;22.61;62.37
38716;BME280;24833;49.324;8.694;2022-08-19T08:13:42;99463.50;;;22.66;62.06
38716;BME280;24833;49.324;8.694;2022-08-19T08:16:09;99470.56;;;22.72;61.79
38716;BME280;24833;49.324;8.694;2022-08-19T08:18:40;99471.59;;;22.81;62.25
38716;BME280;24833;49.324;8.694;2022-08-19T08:21:16;99470.44;;;22.92;62.08
38716;BME280;24833;49.324;8.694;2022-08-19T08:23:43;99459.13;;;23.09;61.89
38716;BME280;24833;49.324;8.694;2022-08-19T08:26:11;99464.44;;;23.24;61.69
38716;BME280;24833;49.324;8.694;2022-08-19T08:28:41;99465.41;;;23.38;61.41
38716;BME280;24833;49.324;8.694;2022-08-19T08:31:14;99476.22;;;23.49;61.39
38716;BME280;24833;49.324;8.694;2022-08-19T08:33:41;99486.47;;;23.62;61.48
38716;BME280;24833;49.324;8.694;2022-08-19T08:36:10;99487.41;;;23.76;61.10
38716;BME280;24833;49.324;8.694;2022-08-19T08:38:38;99480.16;;;23.90;60.98
38716;BME280;24833;49.324;8.694;2022-08-19T08:43:56;99475.84;;;24.27;60.43
38716;BME280;24833;49.324;8.694;2022-08-19T08:46:46;99482.47;;;24.45;60.02
38716;BME280;24833;49.324;8.694;2022-08-19T08:49:57;99476.78;;;24.60;59.81
38716;BME280;24833;49.324;8.694;2022-08-19T08:52:33;99476.66;;;24.70;58.47
38716;BME280;24833;49.324;8.694;2022-08-19T08:55:16;99472.72;;;24.77;58.83
38716;BME280;24833;49.324;8.694;2022-08-19T09:00:25;99484.53;;;24.91;58.34
38716;BME280;24833;49.324;8.694;2022-08-19T09:02:55;99478.38;;;24.99;58.55
38716;BME280;24833;49.324;8.694;2022-08-19T09:05:24;99483.72;;;25.09;58.59
38716;BME280;24833;49.324;8.694;2022-08-19T09:08:13;99487.38;;;25.18;57.70
38716;BME280;24833;49.324;8.694;2022-08-19T09:10:51;99483.97;;;25.26;58.05
38716;BME280;24833;49.324;8.694;2022-08-19T09:14:18;99483.00;;;25.36;57.42
38716;BME280;24833;49.324;8.694;2022-08-19T09:16:21;99473.69;;;25.51;57.53
38716;BME280;24833;49.324;8.694;2022-08-19T09:19:04;99473.72;;;25.65;56.69
38716;BME280;24833;49.324;8.694;2022-08-19T09:21:32;99470.50;;;25.76;56.73
38716;BME280;24833;49.324;8.694;2022-08-19T09:24:04;99468.28;;;25.92;55.22
38716;BME280;24833;49.324;8.694;2022-08-19T09:26:33;99466.66;;;26.05;55.11
38716;BME280;24833;49.324;8.694;2022-08-19T09:29:13;99471.59;;;26.17;55.17
38716;BME280;24833;49.324;8.694;2022-08-19T09:31:41;99460.72;;;26.25;54.68
38716;BME280;24833;49.324;8.694;2022-08-19T09:34:08;99469.75;;;26.40;53.30
38716;BME280;24833;49.324;8.694;2022-08-19T09:36:48;99467.41;;;26.47;53.63
38716;BME280;24833;49.324;8.694;2022-08-19T09:39:21;99474.28;;;26.58;53.81
38716;BME280;24833;49.324;8.694;2022-08-19T09:41:48;99472.41;;;26.67;54.15
38716;BME280;24833;49.324;8.694;2022-08-19T09:44:17;99472.69;;;26.79;53.43
38716;BME280;24833;49.324;8.694;2022-08-19T09:46:45;99461.97;;;26.92;53.03
38716;BME280;24833;49.324;8.694;2022-08-19T09:49:19;99462.75;;;27.06;50.80
38716;BME280;24833;49.324;8.694;2022-08-19T09:51:51;99466.34;;;27.15;52.07
38716;BME280;24833;49.324;8.694;2022-08-19T09:54:21;99478.06;;;27.29;50.32
38716;BME280;24833;49.324;8.694;2022-08-19T09:56:52;99469.88;;;27.38;50.40
38716;BME280;24833;49.324;8.694;2022-08-19T09:59:19;99460.56;;;27.48;50.08
38716;BME280;24833;49.324;8.694;2022-08-19T10:01:47;99460.63;;;27.56;50.58
38716;BME280;24833;49.324;8.694;2022-08-19T10:04:21;99461.78;;;27.64;50.17
38716;BME280;24833;49.324;8.694;2022-08-19T10:06:55;99464.09;;;27.71;48.78
38716;BME280;24833;49.324;8.694;2022-08-19T10:09:23;99464.59;;;27.73;49.70
38716;BME280;24833;49.324;8.694;2022-08-19T10:12:00;99467.34;;;27.81;49.51
38716;BME280;24833;49.324;8.694;2022-08-19T10:14:28;99473.69;;;27.90;48.55
38716;BME280;24833;49.324;8.694;2022-08-19T10:16:56;99477.28;;;28.00;49.22
38716;BME280;24833;49.324;8.694;2022-08-19T10:19:25;99477.47;;;28.12;47.59
38716;BME280;24833;49.324;8.694;2022-08-19T10:21:53;99475.06;;;28.19;46.96
38716;BME280;24833;49.324;8.694;2022-08-19T10:24:26;99472.19;;;28.24;47.81
38716;BME280;24833;49.324;8.694;2022-08-19T10:26:54;99475.28;;;28.31;47.23
38716;BME280;24833;49.324;8.694;2022-08-19T10:29:26;99468.00;;;28.35;46.25
38716;BME280;24833;49.324;8.694;2022-08-19T10:32:01;99471.88;;;28.34;46.34
38716;BME280;24833;49.324;8.694;2022-08-19T10:34:30;99466.91;;;28.36;47.45
38716;BME280;24833;49.324;8.694;2022-08-19T10:36:58;99467.84;;;28.40;46.35
38716;BME280;24833;49.324;8.694;2022-08-19T10:39:30;99463.50;;;28.48;46.52
38716;BME280;24833;49.324;8.694;2022-08-19T10:42:08;99460.78;;;28.57;45.78
38716;BME280;24833;49.324;8.694;2022-08-19T10:44:41;99460.28;;;28.63;46.51
38716;BME280;24833;49.324;8.694;2022-08-19T10:47:08;99454.63;;;28.77;45.53
38716;BME280;24833;49.324;8.694;2022-08-19T10:49:53;99448.63;;;28.84;46.03
38716;BME280;24833;49.324;8.694;2022-08-19T10:52:47;99447.50;;;28.76;44.34
38716;BME280;24833;49.324;8.694;2022-08-19T10:55:23;99441.03;;;28.72;43.71
38716;BME280;24833;49.324;8.694;2022-08-19T10:58:15;99437.16;;;28.73;44.14
38716;BME280;24833;49.324;8.694;2022-08-19T11:00:43;99438.44;;;28.75;44.36
38716;BME280;24833;49.324;8.694;2022-08-19T11:03:11;99427.28;;;28.81;44.21
38716;BME280;24833;49.324;8.694;2022-08-19T11:05:38;99419.19;;;28.84;44.59
38716;BME280;24833;49.324;8.694;2022-08-19T11:08:08;99415.94;;;28.82;43.91
38716;BME280;24833;49.324;8.694;2022-08-19T11:10:52;99408.81;;;28.81;43.69
38716;BME280;24833;49.324;8.694;2022-08-19T11:13:24;99410.44;;;28.82;43.91
38716;BME280;24833;49.324;8.694;2022-08-19T11:16:10;99404.78;;;28.87;43.31
38716;BME280;24833;49.324;8.694;2022-08-19T11:18:44;99418.69;;;28.99;42.08
38716;BME280;24833;49.324;8.694;2022-08-19T11:21:20;99412.69;;;29.06;43.29
38716;BME280;24833;49.324;8.694;2022-08-19T11:23:52;99421.41;;;29.17;42.70
38716;BME280;24833;49.324;8.694;2022-08-19T11:26:20;99406.16;;;29.28;42.61
38716;BME280;24833;49.324;8.694;2022-08-19T11:28:49;99398.69;;;29.37;42.16
38716;BME280;24833;49.324;8.694;2022-08-19T11:31:25;99408.19;;;29.48;43.02
38716;BME280;24833;49.324;8.694;2022-08-19T11:33:57;99400.88;;;29.61;42.93
38716;BME280;24833;49.324;8.694;2022-08-19T11:36:26;99412.03;;;29.65;42.15
38716;BME280;24833;49.324;8.694;2022-08-19T11:38:54;99413.81;;;29.61;42.04
38716;BME280;24833;49.324;8.694;2022-08-19T11:41:23;99418.91;;;29.41;40.98
38716;BME280;24833;49.324;8.694;2022-08-19T11:43:52;99408.78;;;29.24;41.12
38716;BME280;24833;49.324;8.694;2022-08-19T11:46:23;99405.38;;;29.19;41.94
38716;BME280;24833;49.324;8.694;2022-08-19T11:48:51;99398.41;;;29.21;42.02
38716;BME280;24833;49.324;8.694;2022-08-19T11:51:21;99404.06;;;29.25;42.62
38716;BME280;24833;49.324;8.694;2022-08-19T11:53:49;99405.84;;;29.29;41.94
38716;BME280;24833;49.324;8.694;2022-08-19T11:56:18;99404.38;;;29.32;42.36
38716;BME280;24833;49.324;8.694;2022-08-19T11:58:46;99404.72;;;29.30;41.91
38716;BME280;24833;49.324;8.694;2022-08-19T12:01:17;99402.47;;;29.24;41.23
38716;BME280;24833;49.324;8.694;2022-08-19T12:03:46;99400.56;;;29.16;41.43
38716;BME280;24833;49.324;8.694;2022-08-19T12:06:27;99405.72;;;29.09;41.56
38716;BME280;24833;49.324;8.694;2022-08-19T12:08:57;99410.63;;;29.03;41.63
38716;BME280;24833;49.324;8.694;2022-08-19T12:11:27;99418.06;;;29.02;42.00
38716;BME280;24833;49.324;8.694;2022-08-19T12:13:57;99420.97;;;28.97;42.00
38716;BME280;24833;49.324;8.694;2022-08-19T12:16:27;99417.44;;;28.97;42.32
38716;BME280;24833;49.324;8.694;2022-08-19T12:18:56;99419.66;;;28.86;42.88
38716;BME280;24833;49.324;8.694;2022-08-19T12:21:27;99416.13;;;28.77;41.41
38716;BME280;24833;49.324;8.694;2022-08-19T12:23:59;99427.63;;;28.70;42.52
38716;BME280;24833;49.324;8.694;2022-08-19T12:26:28;99417.44;;;28.62;42.22
38716;BME280;24833;49.324;8.694;2022-08-19T12:28:56;99419.19;;;28.67;42.27
38716;BME280;24833;49.324;8.694;2022-08-19T12:31:23;99426.81;;;28.70;41.06
38716;BME280;24833;49.324;8.694;2022-08-19T12:33:50;99428.25;;;28.67;40.65
38716;BME280;24833;49.324;8.694;2022-08-19T12:36:19;99425.69;;;28.62;40.46
38716;BME280;24833;49.324;8.694;2022-08-19T12:38:46;99430.22;;;28.58;41.25
38716;BME280;24833;49.324;8.694;2022-08-19T12:41:15;99431.69;;;28.56;41.62
38716;BME280;24833;49.324;8.694;2022-08-19T12:43:45;99424.22;;;28.47;40.70
38716;BME280;24833;49.324;8.694;2022-08-19T12:46:12;99416.47;;;28.49;41.71
38716;BME280;24833;49.324;8.694;2022-08-19T12:48:41;99418.88;;;28.51;41.51
38716;BME280;24833;49.324;8.694;2022-08-19T12:51:13;99413.84;;;28.62;41.76
38716;BME280;24833;49.324;8.694;2022-08-19T12:53:41;99412.56;;;28.76;42.32
38716;BME280;24833;49.324;8.694;2022-08-19T12:56:11;99421.28;;;28.87;41.69
38716;BME280;24833;49.324;8.694;2022-08-19T12:58:39;99426.13;;;28.90;40.76
38716;BME280;24833;49.324;8.694;2022-08-19T13:01:16;99420.47;;;28.87;39.86
38716;BME280;24833;49.324;8.694;2022-08-19T13:03:47;99420.63;;;28.82;39.86
38716;BME280;24833;49.324;8.694;2022-08-19T13:06:16;99425.31;;;28.81;40.41
38716;BME280;24833;49.324;8.694;2022-08-19T13:08:46;99415.00;;;28.78;39.54
38716;BME280;24833;49.324;8.694;2022-08-19T13:11:19;99409.50;;;28.78;39.17
38716;BME280;24833;49.324;8.694;2022-08-19T13:13:51;99418.06;;;28.85;40.20
38716;BME280;24833;49.324;8.694;2022-08-19T13:16:19;99411.41;;;28.95;39.59
38716;BME280;24833;49.324;8.694;2022-08-19T13:18:47;99408.69;;;29.03;39.22
38716;BME280;24833;49.324;8.694;2022-08-19T13:21:15;99412.38;;;29.16;39.00
38716;BME280;24833;49.324;8.694;2022-08-19T13:23:42;99404.88;;;29.25;38.68
38716;BME280;24833;49.324;8.694;2022-08-19T13:26:11;99401.97;;;29.30;39.26
38716;BME280;24833;49.324;8.694;2022-08-19T13:28:40;99404.19;;;29.37;38.71